sensor_id;sensor_type;location;lat;lon;timestamp;P1;durP1;ratioP1;P2;durP2;ratioP2
56037;SDS011;41907;47.848;9.000;2023-07-31T00:01:14;5.15;;;1.75;;
56037;SDS011;41907;47.848;9.000;2023-07-31T00:03:39;3.10;;;1.40;;
56037;SDS011;41907;47.848;9.000;2023-07-31T00:06:04;2.17;;;1.50;;
56037;SDS011;41907;47.848;9.000;2023-07-31T00:08:30;2.78;;;1.88;;
56037;SDS011;41907;47.848;9.000;2023-07-31T00:10:55;4.38;;;1.92;;
56037;SDS011;41907;47.848;9.000;2023-07-31T00:13:20;3.03;;;1.92;;
56037;SDS011;41907;47.848;9.000;2023-07-31T00:15:46;4.65;;;1.42;;
56037;SDS011;41907;47.848;9.000;2023-07-31T00:18:11;2.92;;;1.65;;
56037;SDS011;41907;47.848;9.000;2023-07-31T00:20:38;6.55;;;2.22;;
56037;SDS011;41907;47.848;9.000;2023-07-31T00:23:03;2.92;;;1.75;;
56037;SDS011;41907;47.848;9.000;2023-07-31T00:25:28;5.93;;;1.92;;
56037;SDS011;41907;47.848;9.000;2023-07-31T00:27:54;3.35;;;1.90;;
56037;SDS011;41907;47.848;9.000;2023-07-31T00:30:19;5.50;;;1.90;;
56037;SDS011;41907;47.848;9.000;2023-07-31T00:32:44;7.18;;;1.92;;
56037;SDS011;41907;47.848;9.000;2023-07-31T00:35:10;2.75;;;1.58;;
56037;SDS011;41907;47.848;9.000;2023-07-31T00:37:35;5.80;;;1.92;;
56037;SDS011;41907;47.848;9.000;2023-07-31T00:40:00;5.00;;;2.00;;
56037;SDS011;41907;47.848;9.000;2023-07-31T00:42:28;4.72;;;2.00;;
56037;SDS011;41907;47.848;9.000;2023-07-31T00:44:53;5.18;;;2.30;;
56037;SDS011;41907;47.848;9.000;2023-07-31T00:47:19;3.22;;;1.80;;
56037;SDS011;41907;47.848;9.000;2023-07-31T00:49:44;3.60;;;1.80;;
56037;SDS011;41907;47.848;9.000;2023-07-31T00:52:10;2.25;;;1.65;;
56037;SDS011;41907;47.848;9.000;2023-07-31T00:54:35;2.60;;;1.90;;
56037;SDS011;41907;47.848;9.000;2023-07-31T00:57:01;4.28;;;2.00;;
56037;SDS011;41907;47.848;9.000;2023-07-31T00:59:27;2.35;;;1.75;;
56037;SDS011;41907;47.848;9.000;2023-07-31T01:01:53;8.52;;;2.42;;
56037;SDS011;41907;47.848;9.000;2023-07-31T01:04:18;3.42;;;1.70;;
56037;SDS011;41907;47.848;9.000;2023-07-31T01:06:59;3.85;;;1.98;;
56037;SDS011;41907;47.848;9.000;2023-07-31T01:09:47;2.90;;;1.63;;
56037;SDS011;41907;47.848;9.000;2023-07-31T01:12:16;2.55;;;1.73;;
56037;SDS011;41907;47.848;9.000;2023-07-31T01:17:39;4.85;;;1.90;;
56037;SDS011;41907;47.848;9.000;2023-07-31T01:20:05;3.90;;;1.83;;
56037;SDS011;41907;47.848;9.000;2023-07-31T01:31:43;4.13;;;1.95;;
56037;SDS011;41907;47.848;9.000;2023-07-31T01:34:13;4.45;;;1.90;;
56037;SDS011;41907;47.848;9.000;2023-07-31T01:36:42;5.90;;;1.98;;
56037;SDS011;41907;47.848;9.000;2023-07-31T01:39:08;1.90;;;1.70;;
56037;SDS011;41907;47.848;9.000;2023-07-31T01:41:33;2.85;;;1.70;;
56037;SDS011;41907;47.848;9.000;2023-07-31T01:43:58;4.00;;;2.13;;
56037;SDS011;41907;47.848;9.000;2023-07-31T01:46:24;5.00;;;1.90;;
56037;SDS011;41907;47.848;9.000;2023-07-31T01:48:49;4.93;;;2.00;;
56037;SDS011;41907;47.848;9.000;2023-07-31T01:51:15;5.90;;;2.80;;
56037;SDS011;41907;47.848;9.000;2023-07-31T01:53:40;4.03;;;1.90;;
56037;SDS011;41907;47.848;9.000;2023-07-31T01:56:05;4.05;;;1.52;;
56037;SDS011;41907;47.848;9.000;2023-07-31T01:58:31;3.75;;;2.42;;
56037;SDS011;41907;47.848;9.000;2023-07-31T02:00:56;4.65;;;2.30;;
56037;SDS011;41907;47.848;9.000;2023-07-31T02:03:21;3.90;;;2.22;;
56037;SDS011;41907;47.848;9.000;2023-07-31T02:05:47;4.63;;;2.40;;
56037;SDS011;41907;47.848;9.000;2023-07-31T02:08:13;4.32;;;2.20;;
56037;SDS011;41907;47.848;9.000;2023-07-31T02:10:39;3.20;;;1.70;;
56037;SDS011;41907;47.848;9.000;2023-07-31T02:13:05;4.63;;;2.05;;
56037;SDS011;41907;47.848;9.000;2023-07-31T02:15:31;8.63;;;2.05;;
56037;SDS011;41907;47.848;9.000;2023-07-31T02:17:56;3.25;;;2.22;;
56037;SDS011;41907;47.848;9.000;2023-07-31T02:20:22;6.63;;;2.50;;
56037;SDS011;41907;47.848;9.000;2023-07-31T02:22:47;3.97;;;2.25;;
56037;SDS011;41907;47.848;9.000;2023-07-31T02:25:13;5.80;;;2.13;;
56037;SDS011;41907;47.848;9.000;2023-07-31T02:27:38;3.88;;;2.60;;
56037;SDS011;41907;47.848;9.000;2023-07-31T02:30:04;3.78;;;2.00;;
56037;SDS011;41907;47.848;9.000;2023-07-31T02:32:30;2.65;;;2.15;;
56037;SDS011;41907;47.848;9.000;2023-07-31T02:34:55;6.15;;;2.42;;
56037;SDS011;41907;47.848;9.000;2023-07-31T02:37:20;3.55;;;2.10;;
56037;SDS011;41907;47.848;9.000;2023-07-31T02:39:46;4.18;;;1.85;;
56037;SDS011;41907;47.848;9.000;2023-07-31T02:42:12;2.58;;;1.85;;
56037;SDS011;41907;47.848;9.000;2023-07-31T02:44:38;2.42;;;1.83;;
56037;SDS011;41907;47.848;9.000;2023-07-31T02:47:03;2.13;;;1.90;;
56037;SDS011;41907;47.848;9.000;2023-07-31T02:49:28;7.28;;;2.22;;
56037;SDS011;41907;47.848;9.000;2023-07-31T02:51:54;5.15;;;2.08;;
56037;SDS011;41907;47.848;9.000;2023-07-31T02:54:19;4.18;;;2.35;;
56037;SDS011;41907;47.848;9.000;2023-07-31T02:56:46;3.65;;;2.05;;
56037;SDS011;41907;47.848;9.000;2023-07-31T02:59:12;2.00;;;1.80;;
56037;SDS011;41907;47.848;9.000;2023-07-31T03:01:37;5.18;;;2.22;;
56037;SDS011;41907;47.848;9.000;2023-07-31T03:04:03;6.55;;;1.98;;
56037;SDS011;41907;47.848;9.000;2023-07-31T03:06:28;5.93;;;2.25;;
56037;SDS011;41907;47.848;9.000;2023-07-31T03:08:54;3.10;;;2.15;;
56037;SDS011;41907;47.848;9.000;2023-07-31T03:11:19;5.43;;;2.20;;
56037;SDS011;41907;47.848;9.000;2023-07-31T03:13:45;2.78;;;2.03;;
56037;SDS011;41907;47.848;9.000;2023-07-31T03:16:10;4.35;;;2.00;;
56037;SDS011;41907;47.848;9.000;2023-07-31T03:18:36;2.60;;;2.10;;
56037;SDS011;41907;47.848;9.000;2023-07-31T03:21:01;2.78;;;1.80;;
56037;SDS011;41907;47.848;9.000;2023-07-31T03:23:26;3.45;;;2.03;;
56037;SDS011;41907;47.848;9.000;2023-07-31T03:25:58;7.32;;;2.70;;
56037;SDS011;41907;47.848;9.000;2023-07-31T03:28:25;3.38;;;2.00;;
56037;SDS011;41907;47.848;9.000;2023-07-31T03:30:51;3.67;;;2.13;;
56037;SDS011;41907;47.848;9.000;2023-07-31T03:33:16;3.53;;;2.08;;
56037;SDS011;41907;47.848;9.000;2023-07-31T03:35:42;2.65;;;2.25;;
56037;SDS011;41907;47.848;9.000;2023-07-31T03:38:07;3.15;;;2.00;;
56037;SDS011;41907;47.848;9.000;2023-07-31T03:40:33;6.32;;;2.20;;
56037;SDS011;41907;47.848;9.000;2023-07-31T03:42:58;3.80;;;2.20;;
56037;SDS011;41907;47.848;9.000;2023-07-31T03:45:23;3.08;;;2.03;;
56037;SDS011;41907;47.848;9.000;2023-07-31T03:47:49;3.40;;;2.17;;
56037;SDS011;41907;47.848;9.000;2023-07-31T03:50:14;4.07;;;2.25;;
56037;SDS011;41907;47.848;9.000;2023-07-31T03:52:40;2.67;;;1.92;;
56037;SDS011;41907;47.848;9.000;2023-07-31T03:55:06;3.47;;;1.90;;
56037;SDS011;41907;47.848;9.000;2023-07-31T03:57:32;3.60;;;2.25;;
56037;SDS011;41907;47.848;9.000;2023-07-31T03:59:57;5.97;;;2.30;;
56037;SDS011;41907;47.848;9.000;2023-07-31T04:02:23;3.65;;;2.47;;
56037;SDS011;41907;47.848;9.000;2023-07-31T04:04:48;5.18;;;2.22;;
56037;SDS011;41907;47.848;9.000;2023-07-31T04:07:14;3.40;;;1.92;;
56037;SDS011;41907;47.848;9.000;2023-07-31T04:09:39;3.53;;;2.08;;
56037;SDS011;41907;47.848;9.000;2023-07-31T04:12:04;3.78;;;2.40;;
56037;SDS011;41907;47.848;9.000;2023-07-31T04:14:30;3.30;;;1.98;;
56037;SDS011;41907;47.848;9.000;2023-07-31T04:16:55;4.18;;;2.20;;
56037;SDS011;41907;47.848;9.000;2023-07-31T04:19:20;3.55;;;2.08;;
56037;SDS011;41907;47.848;9.000;2023-07-31T04:21:46;2.83;;;2.13;;
56037;SDS011;41907;47.848;9.000;2023-07-31T04:24:11;6.47;;;2.50;;
56037;SDS011;41907;47.848;9.000;2023-07-31T04:26:37;5.07;;;2.30;;
56037;SDS011;41907;47.848;9.000;2023-07-31T04:29:02;6.75;;;2.72;;
56037;SDS011;41907;47.848;9.000;2023-07-31T04:31:27;3.53;;;2.30;;
56037;SDS011;41907;47.848;9.000;2023-07-31T04:33:53;7.65;;;2.42;;
56037;SDS011;41907;47.848;9.000;2023-07-31T04:36:18;2.88;;;1.73;;
56037;SDS011;41907;47.848;9.000;2023-07-31T04:38:43;3.67;;;2.28;;
56037;SDS011;41907;47.848;9.000;2023-07-31T04:41:09;5.07;;;2.15;;
56037;SDS011;41907;47.848;9.000;2023-07-31T04:43:34;3.40;;;2.15;;
56037;SDS011;41907;47.848;9.000;2023-07-31T04:45:59;4.75;;;2.22;;
56037;SDS011;41907;47.848;9.000;2023-07-31T04:48:25;3.78;;;2.05;;
56037;SDS011;41907;47.848;9.000;2023-07-31T04:50:50;3.55;;;1.80;;
56037;SDS011;41907;47.848;9.000;2023-07-31T04:53:15;3.25;;;2.03;;
56037;SDS011;41907;47.848;9.000;2023-07-31T04:55:41;3.22;;;2.03;;
56037;SDS011;41907;47.848;9.000;2023-07-31T04:58:06;4.10;;;1.90;;
56037;SDS011;41907;47.848;9.000;2023-07-31T05:00:31;2.70;;;1.60;;
56037;SDS011;41907;47.848;9.000;2023-07-31T05:02:57;2.95;;;2.00;;
56037;SDS011;41907;47.848;9.000;2023-07-31T05:05:22;3.95;;;1.90;;
56037;SDS011;41907;47.848;9.000;2023-07-31T05:07:48;3.33;;;1.83;;
56037;SDS011;41907;47.848;9.000;2023-07-31T05:10:13;3.85;;;1.85;;
56037;SDS011;41907;47.848;9.000;2023-07-31T05:12:38;4.22;;;1.60;;
56037;SDS011;41907;47.848;9.000;2023-07-31T05:15:04;4.15;;;1.98;;
56037;SDS011;41907;47.848;9.000;2023-07-31T05:17:30;4.05;;;2.00;;
56037;SDS011;41907;47.848;9.000;2023-07-31T05:19:55;3.10;;;1.67;;
56037;SDS011;41907;47.848;9.000;2023-07-31T05:22:20;3.95;;;1.75;;
56037;SDS011;41907;47.848;9.000;2023-07-31T05:24:46;3.75;;;1.83;;
56037;SDS011;41907;47.848;9.000;2023-07-31T05:27:11;4.47;;;1.88;;
56037;SDS011;41907;47.848;9.000;2023-07-31T05:29:37;5.15;;;1.85;;
56037;SDS011;41907;47.848;9.000;2023-07-31T05:32:03;2.97;;;1.85;;
56037;SDS011;41907;47.848;9.000;2023-07-31T05:34:29;5.13;;;2.42;;
56037;SDS011;41907;47.848;9.000;2023-07-31T05:36:54;2.90;;;1.88;;
56037;SDS011;41907;47.848;9.000;2023-07-31T05:39:19;5.50;;;2.30;;
56037;SDS011;41907;47.848;9.000;2023-07-31T05:41:45;6.35;;;2.20;;
56037;SDS011;41907;47.848;9.000;2023-07-31T05:44:10;4.75;;;2.35;;
56037;SDS011;41907;47.848;9.000;2023-07-31T05:46:36;2.63;;;1.52;;
56037;SDS011;41907;47.848;9.000;2023-07-31T05:49:01;3.60;;;1.98;;
56037;SDS011;41907;47.848;9.000;2023-07-31T05:51:26;6.80;;;2.35;;
56037;SDS011;41907;47.848;9.000;2023-07-31T05:53:52;3.92;;;2.38;;
56037;SDS011;41907;47.848;9.000;2023-07-31T05:56:18;2.85;;;1.88;;
56037;SDS011;41907;47.848;9.000;2023-07-31T05:58:43;3.65;;;2.65;;
56037;SDS011;41907;47.848;9.000;2023-07-31T06:01:09;5.70;;;2.75;;
56037;SDS011;41907;47.848;9.000;2023-07-31T06:03:34;6.53;;;2.42;;
56037;SDS011;41907;47.848;9.000;2023-07-31T06:05:59;3.30;;;2.20;;
56037;SDS011;41907;47.848;9.000;2023-07-31T06:08:25;2.58;;;2.20;;
56037;SDS011;41907;47.848;9.000;2023-07-31T06:10:50;3.45;;;2.28;;
56037;SDS011;41907;47.848;9.000;2023-07-31T06:13:16;5.35;;;2.40;;
56037;SDS011;41907;47.848;9.000;2023-07-31T06:15:41;3.97;;;2.33;;
56037;SDS011;41907;47.848;9.000;2023-07-31T06:18:06;4.13;;;2.28;;
56037;SDS011;41907;47.848;9.000;2023-07-31T06:20:33;3.78;;;2.10;;
56037;SDS011;41907;47.848;9.000;2023-07-31T06:22:59;5.32;;;2.20;;
56037;SDS011;41907;47.848;9.000;2023-07-31T06:25:24;3.45;;;1.70;;
56037;SDS011;41907;47.848;9.000;2023-07-31T06:27:50;2.70;;;2.47;;
56037;SDS011;41907;47.848;9.000;2023-07-31T06:30:15;4.38;;;2.45;;
56037;SDS011;41907;47.848;9.000;2023-07-31T06:32:41;4.63;;;2.13;;
56037;SDS011;41907;47.848;9.000;2023-07-31T06:35:06;3.95;;;1.63;;
56037;SDS011;41907;47.848;9.000;2023-07-31T06:37:32;3.25;;;2.20;;
56037;SDS011;41907;47.848;9.000;2023-07-31T06:39:57;14.80;;;10.45;;
56037;SDS011;41907;47.848;9.000;2023-07-31T06:42:22;17.38;;;12.73;;
56037;SDS011;41907;47.848;9.000;2023-07-31T06:44:48;16.08;;;10.45;;
56037;SDS011;41907;47.848;9.000;2023-07-31T06:47:14;4.20;;;2.15;;
56037;SDS011;41907;47.848;9.000;2023-07-31T06:49:40;2.47;;;1.80;;
56037;SDS011;41907;47.848;9.000;2023-07-31T06:52:05;2.97;;;2.00;;
56037;SDS011;41907;47.848;9.000;2023-07-31T06:54:31;2.20;;;1.80;;
56037;SDS011;41907;47.848;9.000;2023-07-31T06:56:56;6.35;;;1.83;;
56037;SDS011;41907;47.848;9.000;2023-07-31T06:59:22;4.43;;;2.35;;
56037;SDS011;41907;47.848;9.000;2023-07-31T07:01:47;2.22;;;1.90;;
56037;SDS011;41907;47.848;9.000;2023-07-31T07:04:13;3.40;;;1.90;;
56037;SDS011;41907;47.848;9.000;2023-07-31T07:06:39;3.17;;;1.92;;
56037;SDS011;41907;47.848;9.000;2023-07-31T07:09:04;3.35;;;1.80;;
56037;SDS011;41907;47.848;9.000;2023-07-31T07:11:29;5.00;;;1.80;;
56037;SDS011;41907;47.848;9.000;2023-07-31T07:13:55;6.50;;;2.20;;
56037;SDS011;41907;47.848;9.000;2023-07-31T07:16:20;6.20;;;2.55;;
56037;SDS011;41907;47.848;9.000;2023-07-31T07:18:46;4.95;;;2.20;;
56037;SDS011;41907;47.848;9.000;2023-07-31T07:21:11;4.75;;;2.97;;
56037;SDS011;41907;47.848;9.000;2023-07-31T07:23:40;8.25;;;2.80;;
56037;SDS011;41907;47.848;9.000;2023-07-31T07:26:06;5.47;;;2.80;;
56037;SDS011;41907;47.848;9.000;2023-07-31T07:28:31;3.92;;;2.47;;
56037;SDS011;41907;47.848;9.000;2023-07-31T07:30:56;4.40;;;2.50;;
56037;SDS011;41907;47.848;9.000;2023-07-31T07:33:23;11.50;;;6.43;;
56037;SDS011;41907;47.848;9.000;2023-07-31T07:35:49;6.65;;;2.58;;
56037;SDS011;41907;47.848;9.000;2023-07-31T07:38:14;4.65;;;2.65;;
56037;SDS011;41907;47.848;9.000;2023-07-31T07:40:40;7.78;;;3.00;;
56037;SDS011;41907;47.848;9.000;2023-07-31T07:43:06;6.32;;;2.80;;
56037;SDS011;41907;47.848;9.000;2023-07-31T07:45:31;6.43;;;2.60;;
56037;SDS011;41907;47.848;9.000;2023-07-31T07:47:57;7.45;;;2.60;;
56037;SDS011;41907;47.848;9.000;2023-07-31T07:50:24;6.00;;;2.17;;
56037;SDS011;41907;47.848;9.000;2023-07-31T07:52:49;6.00;;;2.50;;
56037;SDS011;41907;47.848;9.000;2023-07-31T07:55:15;6.22;;;2.65;;
56037;SDS011;41907;47.848;9.000;2023-07-31T07:57:40;5.93;;;2.90;;
56037;SDS011;41907;47.848;9.000;2023-07-31T08:00:06;7.85;;;2.72;;
56037;SDS011;41907;47.848;9.000;2023-07-31T08:02:32;4.70;;;2.33;;
56037;SDS011;41907;47.848;9.000;2023-07-31T08:04:57;5.13;;;2.33;;
56037;SDS011;41907;47.848;9.000;2023-07-31T08:07:22;5.10;;;2.05;;
56037;SDS011;41907;47.848;9.000;2023-07-31T08:09:48;5.70;;;2.00;;
56037;SDS011;41907;47.848;9.000;2023-07-31T08:12:13;4.13;;;2.17;;
56037;SDS011;41907;47.848;9.000;2023-07-31T08:14:39;9.18;;;2.13;;
56037;SDS011;41907;47.848;9.000;2023-07-31T08:17:04;4.88;;;2.65;;
56037;SDS011;41907;47.848;9.000;2023-07-31T08:19:29;6.85;;;1.70;;
56037;SDS011;41907;47.848;9.000;2023-07-31T08:21:55;2.85;;;1.40;;
56037;SDS011;41907;47.848;9.000;2023-07-31T08:24:20;4.15;;;1.67;;
56037;SDS011;41907;47.848;9.000;2023-07-31T08:26:46;6.63;;;1.60;;
56037;SDS011;41907;47.848;9.000;2023-07-31T08:29:12;3.72;;;1.67;;
56037;SDS011;41907;47.848;9.000;2023-07-31T08:31:37;5.10;;;1.85;;
56037;SDS011;41907;47.848;9.000;2023-07-31T08:34:02;3.85;;;1.35;;
56037;SDS011;41907;47.848;9.000;2023-07-31T08:36:28;7.50;;;3.72;;
56037;SDS011;41907;47.848;9.000;2023-07-31T08:38:53;5.47;;;1.35;;
56037;SDS011;41907;47.848;9.000;2023-07-31T08:41:19;7.15;;;1.50;;
56037;SDS011;41907;47.848;9.000;2023-07-31T08:43:47;4.32;;;1.83;;
56037;SDS011;41907;47.848;9.000;2023-07-31T08:46:14;5.38;;;1.63;;
56037;SDS011;41907;47.848;9.000;2023-07-31T08:48:41;5.70;;;1.38;;
56037;SDS011;41907;47.848;9.000;2023-07-31T08:51:07;6.95;;;1.75;;
56037;SDS011;41907;47.848;9.000;2023-07-31T08:53:33;3.97;;;1.50;;
56037;SDS011;41907;47.848;9.000;2023-07-31T08:55:59;7.45;;;1.77;;
56037;SDS011;41907;47.848;9.000;2023-07-31T08:58:24;5.13;;;1.17;;
56037;SDS011;41907;47.848;9.000;2023-07-31T09:00:52;8.38;;;1.60;;
56037;SDS011;41907;47.848;9.000;2023-07-31T09:03:21;5.38;;;1.85;;
56037;SDS011;41907;47.848;9.000;2023-07-31T09:05:49;5.32;;;1.88;;
56037;SDS011;41907;47.848;9.000;2023-07-31T09:08:18;2.72;;;1.23;;
56037;SDS011;41907;47.848;9.000;2023-07-31T09:10:45;3.40;;;1.80;;
56037;SDS011;41907;47.848;9.000;2023-07-31T09:13:12;5.75;;;1.80;;
56037;SDS011;41907;47.848;9.000;2023-07-31T09:15:37;3.47;;;1.42;;
56037;SDS011;41907;47.848;9.000;2023-07-31T09:18:04;5.55;;;1.60;;
56037;SDS011;41907;47.848;9.000;2023-07-31T09:20:31;6.38;;;1.95;;
56037;SDS011;41907;47.848;9.000;2023-07-31T09:23:02;4.63;;;1.55;;
56037;SDS011;41907;47.848;9.000;2023-07-31T09:25:32;4.63;;;1.63;;
56037;SDS011;41907;47.848;9.000;2023-07-31T09:27:58;3.55;;;1.42;;
56037;SDS011;41907;47.848;9.000;2023-07-31T09:30:25;3.53;;;1.50;;
56037;SDS011;41907;47.848;9.000;2023-07-31T09:32:52;3.10;;;1.48;;
56037;SDS011;41907;47.848;9.000;2023-07-31T09:35:29;6.35;;;1.98;;
56037;SDS011;41907;47.848;9.000;2023-07-31T09:37:59;3.65;;;1.70;;
56037;SDS011;41907;47.848;9.000;2023-07-31T09:40:29;5.00;;;1.25;;
56037;SDS011;41907;47.848;9.000;2023-07-31T09:42:58;6.07;;;1.70;;
56037;SDS011;41907;47.848;9.000;2023-07-31T09:45:25;3.40;;;1.65;;
56037;SDS011;41907;47.848;9.000;2023-07-31T09:47:51;3.92;;;2.75;;
56037;SDS011;41907;47.848;9.000;2023-07-31T09:50:17;6.75;;;1.75;;
56037;SDS011;41907;47.848;9.000;2023-07-31T09:52:43;4.45;;;1.73;;
56037;SDS011;41907;47.848;9.000;2023-07-31T09:55:09;3.80;;;1.50;;
56037;SDS011;41907;47.848;9.000;2023-07-31T09:57:45;6.03;;;1.73;;
56037;SDS011;41907;47.848;9.000;2023-07-31T10:00:13;3.13;;;1.40;;
56037;SDS011;41907;47.848;9.000;2023-07-31T10:02:43;3.67;;;1.42;;
56037;SDS011;41907;47.848;9.000;2023-07-31T10:05:12;4.38;;;1.30;;
56037;SDS011;41907;47.848;9.000;2023-07-31T10:07:39;5.57;;;1.75;;
56037;SDS011;41907;47.848;9.000;2023-07-31T10:10:19;4.85;;;1.45;;
56037;SDS011;41907;47.848;9.000;2023-07-31T10:12:48;5.90;;;1.83;;
56037;SDS011;41907;47.848;9.000;2023-07-31T10:15:14;4.32;;;1.42;;
56037;SDS011;41907;47.848;9.000;2023-07-31T10:17:41;1.98;;;1.20;;
56037;SDS011;41907;47.848;9.000;2023-07-31T10:20:07;4.07;;;1.48;;
56037;SDS011;41907;47.848;9.000;2023-07-31T10:22:32;5.90;;;1.60;;
56037;SDS011;41907;47.848;9.000;2023-07-31T10:24:59;2.28;;;1.40;;
56037;SDS011;41907;47.848;9.000;2023-07-31T10:27:25;2.60;;;1.67;;
56037;SDS011;41907;47.848;9.000;2023-07-31T10:29:51;3.95;;;1.58;;
56037;SDS011;41907;47.848;9.000;2023-07-31T10:32:18;3.28;;;1.33;;
56037;SDS011;41907;47.848;9.000;2023-07-31T10:34:45;5.78;;;2.25;;
56037;SDS011;41907;47.848;9.000;2023-07-31T10:37:30;2.22;;;1.67;;
56037;SDS011;41907;47.848;9.000;2023-07-31T10:40:05;7.90;;;1.83;;
56037;SDS011;41907;47.848;9.000;2023-07-31T10:42:38;2.85;;;1.17;;
56037;SDS011;41907;47.848;9.000;2023-07-31T10:45:12;2.63;;;1.25;;
56037;SDS011;41907;47.848;9.000;2023-07-31T10:47:47;2.90;;;1.38;;
56037;SDS011;41907;47.848;9.000;2023-07-31T10:50:13;6.38;;;1.80;;
56037;SDS011;41907;47.848;9.000;2023-07-31T10:52:44;3.95;;;1.52;;
56037;SDS011;41907;47.848;9.000;2023-07-31T10:58:06;6.47;;;1.35;;
56037;SDS011;41907;47.848;9.000;2023-07-31T11:00:33;2.50;;;1.55;;
56037;SDS011;41907;47.848;9.000;2023-07-31T11:03:04;4.53;;;1.60;;
56037;SDS011;41907;47.848;9.000;2023-07-31T11:08:27;2.38;;;1.17;;
56037;SDS011;41907;47.848;9.000;2023-07-31T11:13:29;3.28;;;1.25;;
56037;SDS011;41907;47.848;9.000;2023-07-31T11:15:55;4.38;;;1.70;;
56037;SDS011;41907;47.848;9.000;2023-07-31T11:18:20;3.85;;;1.85;;
56037;SDS011;41907;47.848;9.000;2023-07-31T11:20:46;2.53;;;1.42;;
56037;SDS011;41907;47.848;9.000;2023-07-31T11:23:12;2.90;;;1.30;;
56037;SDS011;41907;47.848;9.000;2023-07-31T11:25:38;3.53;;;1.20;;
56037;SDS011;41907;47.848;9.000;2023-07-31T11:28:11;5.95;;;1.30;;
56037;SDS011;41907;47.848;9.000;2023-07-31T11:30:38;2.50;;;1.33;;
56037;SDS011;41907;47.848;9.000;2023-07-31T11:33:06;2.40;;;1.35;;
56037;SDS011;41907;47.848;9.000;2023-07-31T11:35:32;4.00;;;1.58;;
56037;SDS011;41907;47.848;9.000;2023-07-31T11:37:59;3.10;;;1.27;;
56037;SDS011;41907;47.848;9.000;2023-07-31T11:40:25;2.80;;;1.48;;
56037;SDS011;41907;47.848;9.000;2023-07-31T11:42:55;5.60;;;1.73;;
56037;SDS011;41907;47.848;9.000;2023-07-31T11:45:21;3.75;;;1.38;;
56037;SDS011;41907;47.848;9.000;2023-07-31T11:47:50;3.63;;;1.40;;
56037;SDS011;41907;47.848;9.000;2023-07-31T11:50:15;2.50;;;1.20;;
56037;SDS011;41907;47.848;9.000;2023-07-31T11:52:42;4.13;;;2.13;;
56037;SDS011;41907;47.848;9.000;2023-07-31T11:55:09;2.72;;;1.13;;
56037;SDS011;41907;47.848;9.000;2023-07-31T11:57:37;3.72;;;1.35;;
56037;SDS011;41907;47.848;9.000;2023-07-31T12:00:04;3.78;;;1.38;;
56037;SDS011;41907;47.848;9.000;2023-07-31T12:02:32;1.90;;;1.30;;
56037;SDS011;41907;47.848;9.000;2023-07-31T12:04:57;5.00;;;1.80;;
56037;SDS011;41907;47.848;9.000;2023-07-31T12:07:23;3.65;;;1.30;;
56037;SDS011;41907;47.848;9.000;2023-07-31T12:09:54;2.45;;;1.20;;
56037;SDS011;41907;47.848;9.000;2023-07-31T12:12:24;2.17;;;1.40;;
56037;SDS011;41907;47.848;9.000;2023-07-31T12:14:50;2.67;;;1.10;;
56037;SDS011;41907;47.848;9.000;2023-07-31T12:17:17;3.63;;;1.80;;
56037;SDS011;41907;47.848;9.000;2023-07-31T12:19:45;2.72;;;1.30;;
56037;SDS011;41907;47.848;9.000;2023-07-31T12:22:13;2.97;;;1.48;;
56037;SDS011;41907;47.848;9.000;2023-07-31T12:24:43;2.92;;;1.67;;
56037;SDS011;41907;47.848;9.000;2023-07-31T12:27:15;2.15;;;1.50;;
56037;SDS011;41907;47.848;9.000;2023-07-31T12:29:42;2.72;;;1.58;;
56037;SDS011;41907;47.848;9.000;2023-07-31T12:32:20;2.10;;;1.40;;
56037;SDS011;41907;47.848;9.000;2023-07-31T12:34:47;4.05;;;1.50;;
56037;SDS011;41907;47.848;9.000;2023-07-31T12:37:12;3.25;;;1.30;;
56037;SDS011;41907;47.848;9.000;2023-07-31T12:39:38;4.32;;;1.40;;
56037;SDS011;41907;47.848;9.000;2023-07-31T12:42:03;4.47;;;1.77;;
56037;SDS011;41907;47.848;9.000;2023-07-31T12:44:29;5.68;;;1.90;;
56037;SDS011;41907;47.848;9.000;2023-07-31T12:46:54;5.43;;;1.52;;
56037;SDS011;41907;47.848;9.000;2023-07-31T12:49:20;3.35;;;1.98;;
56037;SDS011;41907;47.848;9.000;2023-07-31T12:51:45;3.80;;;1.77;;
56037;SDS011;41907;47.848;9.000;2023-07-31T12:54:10;2.63;;;1.35;;
56037;SDS011;41907;47.848;9.000;2023-07-31T12:56:35;5.72;;;2.17;;
56037;SDS011;41907;47.848;9.000;2023-07-31T12:59:01;2.03;;;1.50;;
56037;SDS011;41907;47.848;9.000;2023-07-31T13:01:26;2.05;;;1.48;;
56037;SDS011;41907;47.848;9.000;2023-07-31T13:03:52;2.50;;;1.52;;
56037;SDS011;41907;47.848;9.000;2023-07-31T13:06:17;2.42;;;1.45;;
56037;SDS011;41907;47.848;9.000;2023-07-31T13:08:42;5.78;;;1.85;;
56037;SDS011;41907;47.848;9.000;2023-07-31T13:11:08;4.97;;;2.13;;
56037;SDS011;41907;47.848;9.000;2023-07-31T13:13:33;3.75;;;1.75;;
56037;SDS011;41907;47.848;9.000;2023-07-31T13:15:58;3.95;;;1.52;;
56037;SDS011;41907;47.848;9.000;2023-07-31T13:18:24;3.55;;;2.53;;
56037;SDS011;41907;47.848;9.000;2023-07-31T13:20:49;3.58;;;2.30;;
56037;SDS011;41907;47.848;9.000;2023-07-31T13:23:14;4.72;;;1.90;;
56037;SDS011;41907;47.848;9.000;2023-07-31T13:25:40;5.47;;;1.80;;
56037;SDS011;41907;47.848;9.000;2023-07-31T13:28:05;5.45;;;1.88;;
56037;SDS011;41907;47.848;9.000;2023-07-31T13:30:30;5.55;;;1.80;;
56037;SDS011;41907;47.848;9.000;2023-07-31T13:32:56;6.03;;;2.15;;
56037;SDS011;41907;47.848;9.000;2023-07-31T13:35:21;4.60;;;2.75;;
56037;SDS011;41907;47.848;9.000;2023-07-31T13:37:46;3.53;;;1.77;;
56037;SDS011;41907;47.848;9.000;2023-07-31T13:40:12;3.50;;;2.05;;
56037;SDS011;41907;47.848;9.000;2023-07-31T13:42:37;7.60;;;2.20;;
56037;SDS011;41907;47.848;9.000;2023-07-31T13:45:03;3.63;;;1.55;;
56037;SDS011;41907;47.848;9.000;2023-07-31T13:47:28;2.15;;;1.40;;
56037;SDS011;41907;47.848;9.000;2023-07-31T13:49:54;5.22;;;1.90;;
56037;SDS011;41907;47.848;9.000;2023-07-31T13:52:19;4.68;;;1.77;;
56037;SDS011;41907;47.848;9.000;2023-07-31T13:54:44;2.30;;;1.35;;
56037;SDS011;41907;47.848;9.000;2023-07-31T13:57:10;2.97;;;1.83;;
56037;SDS011;41907;47.848;9.000;2023-07-31T13:59:35;3.05;;;2.03;;
56037;SDS011;41907;47.848;9.000;2023-07-31T14:02:01;4.60;;;2.10;;
56037;SDS011;41907;47.848;9.000;2023-07-31T14:04:27;3.63;;;1.95;;
56037;SDS011;41907;47.848;9.000;2023-07-31T14:06:53;4.13;;;2.80;;
56037;SDS011;41907;47.848;9.000;2023-07-31T14:09:18;4.57;;;1.80;;
56037;SDS011;41907;47.848;9.000;2023-07-31T14:11:44;4.30;;;1.60;;
56037;SDS011;41907;47.848;9.000;2023-07-31T14:14:09;3.80;;;1.88;;
56037;SDS011;41907;47.848;9.000;2023-07-31T14:16:35;4.03;;;1.88;;
56037;SDS011;41907;47.848;9.000;2023-07-31T14:19:00;4.18;;;1.85;;
56037;SDS011;41907;47.848;9.000;2023-07-31T14:21:26;3.83;;;2.00;;
56037;SDS011;41907;47.848;9.000;2023-07-31T14:23:51;3.60;;;1.80;;
56037;SDS011;41907;47.848;9.000;2023-07-31T14:26:17;3.47;;;1.70;;
56037;SDS011;41907;47.848;9.000;2023-07-31T14:28:42;4.95;;;1.90;;
56037;SDS011;41907;47.848;9.000;2023-07-31T14:31:07;5.00;;;2.10;;
56037;SDS011;41907;47.848;9.000;2023-07-31T14:33:33;4.95;;;1.92;;
56037;SDS011;41907;47.848;9.000;2023-07-31T14:35:58;3.97;;;2.08;;
56037;SDS011;41907;47.848;9.000;2023-07-31T14:38:24;3.88;;;2.03;;
56037;SDS011;41907;47.848;9.000;2023-07-31T14:40:49;4.18;;;2.20;;
56037;SDS011;41907;47.848;9.000;2023-07-31T14:43:15;5.97;;;2.20;;
56037;SDS011;41907;47.848;9.000;2023-07-31T14:45:41;7.60;;;2.35;;
56037;SDS011;41907;47.848;9.000;2023-07-31T14:48:06;5.88;;;2.20;;
56037;SDS011;41907;47.848;9.000;2023-07-31T14:50:32;2.83;;;1.92;;
56037;SDS011;41907;47.848;9.000;2023-07-31T14:52:57;5.43;;;2.22;;
56037;SDS011;41907;47.848;9.000;2023-07-31T14:55:23;5.47;;;2.08;;
56037;SDS011;41907;47.848;9.000;2023-07-31T14:57:48;8.50;;;2.35;;
56037;SDS011;41907;47.848;9.000;2023-07-31T15:00:14;6.88;;;2.55;;
56037;SDS011;41907;47.848;9.000;2023-07-31T15:02:40;4.07;;;2.20;;